Data for 01/03/2011

Time Sea-Level Adjusted Pressure Absolute Pressure Temperature Relative Humidity Dew Point   
(mb) (inHg) (mb) (inHg) (C) (F) (%) (C) (F)
00:05 1016 30 845 24.95 -7.2 19.1 78 -10.4 13.3
00:10 1016 30 845 24.95 -7.1 19.3 79 -10.1 13.7
00:15 1016 30 845 24.95 -7.2 19.1 79 -10.2 13.7
00:20 1016 30 845 24.95 -7.1 19.1 78 -10.4 13.3
00:25 1016 30 845 24.95 -7.1 19.3 79 -10.1 13.7
00:30 1016 30 845 24.95 -7.1 19.2 76 -10.6 12.9
00:35 1016 30 845 24.95 -7 19.4 76 -10.6 13
00:40 1016 30 845 24.95 -6.9 19.5 76 -10.6 13
00:45 1016 30 845 24.95 -6.9 19.7 76 -10.5 13.2
00:50 1016 30 845 24.95 -6.9 19.5 75 -10.6 12.9
00:55 1016 30 845 24.95 -6.9 19.6 75 -10.6 12.8
01:00 1016 30 846 24.98 -6.8 19.7 73 -10.8 12.5
01:05 1016 30 846 24.98 -6.8 19.8 74 -10.6 12.9
01:10 1016 30 846 24.98 -6.8 19.7 74 -10.7 12.7
01:15 1016 30 846 24.98 -6.8 19.7 74 -10.8 12.6
01:20 1016 30 846 24.98 -6.8 19.8 72 -11 12.2
01:25 1016 30 846 24.98 -6.8 19.8 71 -11.1 12
01:30 1016 30 846 24.98 -6.8 19.8 71 -11.2 11.9
01:35 1016 30 846 24.98 -6.7 19.9 72 -11 12.1
01:40 1016 30 846 24.98 -6.8 19.8 71 -11.1 11.9
01:45 1016 30 846 24.98 -6.8 19.9 71 -11.3 11.7
01:50 1017 30.03 846 24.98 -6.8 19.8 71 -11.1 12
01:55 1016 30 846 24.98 -6.8 19.7 72 -11.1 12.1
02:00 1016 30 846 24.98 -6.9 19.6 72 -11.2 11.9
02:05 1016 30 846 24.98 -6.9 19.6 72 -11.2 11.8
02:10 1017 30.03 846 24.98 -6.9 19.5 72 -11.2 11.9
02:15 1017 30.03 846 24.98 -7 19.4 73 -11 12.2
02:20 1017 30.03 846 24.98 -7.1 19.3 73 -11 12.1
02:25 1017 30.03 846 24.98 -7.1 19.2 74 -11 12.3
02:30 1017 30.03 846 24.98 -7.2 19 75 -11 12.2
02:35 1017 30.03 846 24.98 -7.4 18.6 75 -11.1 12.1
02:40 1017 30.03 846 24.98 -7.6 18.4 74 -11.4 11.5
02:45 1017 30.03 846 24.98 -7.4 18.7 73 -11.5 11.3
02:50 1017 30.03 846 24.98 -7.3 18.8 73 -11.4 11.4
02:55 1017 30.03 846 24.98 -7.4 18.6 74 -11.3 11.6
03:00 1017 30.03 846 24.98 -7.5 18.4 75 -11.2 11.9
03:05 1017 30.03 846 24.98 -7.4 18.7 74 -11.2 11.9
03:10 1017 30.03 846 24.98 -7.2 19 73 -11.2 11.8
03:15 1017 30.03 846 24.98 -7.2 19.1 73 -11.2 11.8
03:20 1017 30.03 846 24.98 -7.1 19.2 72 -11.3 11.6
03:25 1017 30.03 846 24.98 -7 19.4 72 -11.3 11.7
03:30 1017 30.03 846 24.98 -7.1 19.3 72 -11.2 11.8
03:35 1017 30.03 846 24.98 -7.1 19.3 73 -11.2 11.9
03:40 1017 30.03 846 24.98 -7.1 19.2 72 -11.4 11.6
03:45 1017 30.03 846 24.98 -7.1 19.2 71 -11.5 11.3
03:50 1017 30.03 846 24.98 -7.1 19.3 71 -11.5 11.4
03:55 1017 30.03 846 24.98 -7.1 19.2 71 -11.5 11.3
04:00 1017 30.03 846 24.98 -7 19.4 70 -11.5 11.3
04:05 1017 30.03 846 24.98 -7 19.4 71 -11.3 11.6
04:10 1017 30.03 846 24.98 -7 19.4 71 -11.3 11.6
04:15 1017 30.03 846 24.98 -7.2 19 72 -11.4 11.4
04:20 1017 30.03 846 24.98 -7.6 18.3 73 -11.6 11.1
04:25 1017 30.03 846 24.98 -7.7 18.2 74 -11.5 11.2
04:30 1017 30.03 847 25.01 -7.5 18.4 74 -11.5 11.4
04:35 1017 30.03 847 25.01 -7.4 18.6 73 -11.5 11.4
04:40 1017 30.03 847 25.01 -7.3 18.8 72 -11.6 11.2
04:45 1017 30.03 847 25.01 -7.5 18.6 73 -11.5 11.2
04:50 1017 30.03 847 25.01 -7.6 18.3 74 -11.5 11.3
04:55 1017 30.03 847 25.01 -7.4 18.8 71 -11.7 10.9
05:00 1017 30.03 847 25.01 -7.4 18.6 72 -11.6 11.2
05:05 1017 30.03 846 24.98 -7.6 18.4 72 -11.8 10.8
05:10 1017 30.03 846 24.98 -7.5 18.5 72 -11.8 10.8
05:15 1017 30.03 847 25.01 -7.6 18.3 72 -11.8 10.8
05:20 1017 30.03 847 25.01 -7.5 18.4 72 -11.7 10.9
05:25 1017 30.03 846 24.98 -7.4 18.7 72 -11.6 11.1
05:30 1017 30.03 847 25.01 -7.2 19 72 -11.4 11.5
05:35 1017 30.03 847 25.01 -7.2 19.1 71 -11.6 11.1
05:40 1017 30.03 847 25.01 -7.1 19.2 71 -11.5 11.3
05:45 1017 30.03 847 25.01 -7.2 19 72 -11.5 11.3
05:50 1017 30.03 847 25.01 -7.3 18.9 73 -11.4 11.5
05:55 1017 30.03 847 25.01 -7.3 18.9 71 -11.7 10.9
06:00 1017 30.03 847 25.01 -7.5 18.4 72 -11.8 10.7
06:05 1017 30.03 847 25.01 -7.6 18.4 72 -11.7 10.9
06:10 1017 30.03 847 25.01 -7.3 18.8 71 -11.7 10.9
06:15 1017 30.03 847 25.01 -7.1 19.1 69 -11.8 10.7
06:20 1017 30.03 847 25.01 -7 19.5 71 -11.5 11.4
06:25 1018 30.06 847 25.01 -6.8 19.8 70 -11.4 11.5
06:30 1018 30.06 847 25.01 -6.6 20.1 69 -11.4 11.5
06:35 1018 30.06 847 25.01 -6.7 20 69 -11.5 11.3
06:40 1018 30.06 847 25.01 -6.7 19.9 69 -11.5 11.3
06:45 1018 30.06 847 25.01 -6.7 19.9 69 -11.4 11.5
06:50 1018 30.06 847 25.01 -7.1 19.2 73 -11.2 11.9
06:55 1018 30.06 847 25.01 -7.5 18.5 74 -11.3 11.7
07:00 1018 30.06 847 25.01 -7.5 18.4 75 -11.3 11.7
07:05 1018 30.06 847 25.01 -7.4 18.6 75 -11.1 12
07:10 1018 30.06 847 25.01 -7.5 18.5 80 -10.4 13.3
07:15 1018 30.06 847 25.01 -7.7 18.1 81 -10.4 13.2
07:20 1018 30.06 847 25.01 -7.8 17.9 81 -10.5 13.1
07:25 1018 30.06 847 25.01 -7.8 17.9 80 -10.7 12.7
07:30 1018 30.06 847 25.01 -7.9 17.8 79 -10.9 12.4
07:35 1018 30.06 847 25.01 -7.9 17.8 78 -11.2 11.9
07:40 1018 30.06 847 25.01 -7.9 17.8 77 -11.2 11.8
07:45 1018 30.06 847 25.01 -7.9 17.7 78 -11.1 11.9
07:50 1018 30.06 847 25.01 -7.9 17.7 79 -10.9 12.3
07:55 1018 30.06 847 25.01 -7.9 17.8 80 -10.8 12.5
08:00 1018 30.06 847 25.01 -7.9 17.9 80 -10.8 12.6
08:05 1018 30.06 847 25.01 -7.8 18.1 79 -10.7 12.7
08:10 1018 30.06 847 25.01 -7.7 18.2 79 -10.6 12.8
08:15 1018 30.06 847 25.01 -7.7 18.1 79 -10.7 12.7
08:20 1018 30.06 847 25.01 -7.8 18 80 -10.7 12.7
08:25 1018 30.06 847 25.01 -8 17.6 80 -10.8 12.6
08:30 1018 30.06 847 25.01 -8 17.7 80 -10.8 12.5
08:35 1018 30.06 847 25.01 -7.8 17.9 80 -10.8 12.6
08:40 1018 30.06 847 25.01 -7.9 17.9 79 -11 12.3
08:45 1018 30.06 848 25.04 -7.6 18.3 77 -11 12.2
08:50 1018 30.06 848 25.04 -7.3 18.9 76 -10.8 12.5
08:55 1018 30.06 848 25.04 -7.2 19.1 75 -10.9 12.4
09:00 1018 30.06 848 25.04 -7.4 18.7 75 -11 12.1
09:05 1019 30.09 848 25.04 -7.5 18.5 74 -11.3 11.6
09:10 1019 30.09 848 25.04 -7.7 18.1 72 -12 10.4
09:15 1019 30.09 848 25.04 -8.4 16.8 77 -11.8 10.8
09:20 1019 30.09 848 25.04 -8.5 16.7 76 -11.9 10.5
09:25 1019 30.09 848 25.04 -8.2 17.2 76 -11.7 11
09:30 1019 30.09 848 25.04 -7.6 18.3 74 -11.5 11.3
09:35 1019 30.09 848 25.04 -7.2 19.1 72 -11.3 11.6
09:40 1019 30.09 848 25.04 -6.7 20 69 -11.5 11.3
09:45 1019 30.09 848 25.04 -6.1 20.9 66 -11.5 11.3
09:50 1019 30.09 848 25.04 -5.9 21.3 66 -11.3 11.6
09:55 1019 30.09 848 25.04 -6 21.1 66 -11.4 11.4
10:00 1019 30.09 848 25.04 -5.6 21.9 64 -11.4 11.5
10:05 1019 30.09 848 25.04 -5.7 21.7 65 -11.2 11.8
10:10 1019 30.09 848 25.04 -6 21.2 66 -11.5 11.4
10:15 1019 30.09 848 25.04 -5.6 21.9 63 -11.5 11.2
10:20 1019 30.09 848 25.04 -5.5 22.1 62 -11.6 11.1
10:25 1019 30.09 848 25.04 -5.3 22.4 62 -11.5 11.3
10:30 1019 30.09 848 25.04 -5.2 22.6 62 -11.5 11.3
10:35 1019 30.09 848 25.04 -5.1 22.8 61 -11.6 11.1
10:40 1019 30.09 848 25.04 -4.8 23.3 60 -11.5 11.2
10:45 1019 30.09 848 25.04 -4.5 23.9 58 -11.6 11.1
10:50 1019 30.09 848 25.04 -4.2 24.4 57 -11.6 11
10:55 1019 30.09 848 25.04 -4.2 24.5 56 -11.6 11.1
11:00 1019 30.09 848 25.04 -4.3 24.3 57 -11.5 11.3
11:05 1019 30.09 848 25.04 -4.3 24.2 57 -11.6 11.2
11:10 1019 30.09 848 25.04 -4 24.7 55 -11.7 10.9
11:15 1019 30.09 848 25.04 -4.1 24.7 55 -11.8 10.8
11:20 1019 30.09 848 25.04 -4 24.7 56 -11.6 11.1
11:25 1019 30.09 848 25.04 -3.8 25.2 55 -11.6 11.1
11:30 1019 30.09 848 25.04 -4.1 24.7 56 -11.7 10.9
11:35 1019 30.09 848 25.04 -5.2 22.6 58 -12.2 10.1
11:40 1019 30.09 848 25.04 -5.4 22.4 59 -12.2 10
11:45 1019 30.09 848 25.04 -4.9 23.2 55 -12.5 9.5
11:50 1019 30.09 848 25.04 -4.4 24 53 -12.6 9.3
11:55 1019 30.09 848 25.04 -3.9 24.9 53 -12.1 10.3
12:00 1019 30.09 848 25.04 -3.7 25.4 53 -11.9 10.7
12:05 1019 30.09 848 25.04 -3.7 25.3 54 -11.8 10.8
12:10 1019 30.09 848 25.04 -4.5 23.9 58 -11.5 11.2
12:15 1019 30.09 848 25.04 -5.7 21.8 61 -12 10.4
12:20 1019 30.09 848 25.04 -6.8 19.7 61 -13.1 8.5
12:25 1019 30.09 848 25.04 -6.4 20.5 60 -12.8 8.9
12:30 1019 30.09 848 25.04 -5.9 21.4 61 -12.3 9.8
12:35 1019 30.09 848 25.04 -5.8 21.6 60 -12.3 9.8
12:40 1019 30.09 848 25.04 -6.2 20.9 62 -12.3 9.9
12:45 1018 30.06 848 25.04 -6 21.2 61 -12.3 9.9
12:50 1018 30.06 848 25.04 -5.7 21.8 59 -12.5 9.5
12:55 1018 30.06 848 25.04 -5.5 22.1 60 -12 10.4
13:00 1018 30.06 847 25.01 -5 23 58 -12.1 10.2
13:05 1018 30.06 847 25.01 -4.1 24.6 55 -11.9 10.6
13:10 1018 30.06 847 25.01 -3.6 25.6 53 -11.7 10.9
13:15 1018 30.06 847 25.01 -3.1 26.5 52 -11.6 11.2
13:20 1018 30.06 847 25.01 -3.2 26.2 52 -11.6 11
13:25 1018 30.06 847 25.01 -2.9 26.9 50 -11.9 10.6
13:30 1018 30.06 847 25.01 -2.9 26.7 52 -11.5 11.3
13:35 1018 30.06 847 25.01 -3.7 25.4 54 -11.7 11
13:40 1018 30.06 847 25.01 -3.7 25.4 53 -11.9 10.5
13:45 1018 30.06 847 25.01 -3.3 26.1 53 -11.5 11.4
13:50 1018 30.06 847 25.01 -2.8 26.9 51 -11.5 11.2
13:55 1018 30.06 847 25.01 -2.9 26.8 51 -11.6 11.2
14:00 1018 30.06 847 25.01 -3.4 25.8 55 -11.2 11.9
14:05 1018 30.06 847 25.01 -3.3 26.1 52 -11.8 10.8
14:10 1018 30.06 847 25.01 -2.7 27.1 52 -11.2 11.8
14:15 1018 30.06 847 25.01 -2.8 26.9 52 -11.3 11.6
14:20 1018 30.06 847 25.01 -3.2 26.2 53 -11.5 11.2
14:25 1018 30.06 847 25.01 -3.8 25.1 55 -11.7 11
14:30 1018 30.06 847 25.01 -3.8 25.1 54 -11.9 10.5
14:35 1018 30.06 847 25.01 -4 24.8 55 -11.8 10.8
14:40 1018 30.06 847 25.01 -4 24.8 55 -11.8 10.8
14:45 1018 30.06 847 25.01 -4.2 24.5 55 -11.9 10.5
14:50 1018 30.06 847 25.01 -4 24.9 54 -12.1 10.3
14:55 1018 30.06 847 25.01 -3.8 25.2 53 -12 10.4
15:00 1018 30.06 847 25.01 -3.8 25.1 54 -11.9 10.5
15:05 1018 30.06 847 25.01 -4.4 24 57 -11.7 10.9
15:10 1018 30.06 847 25.01 -5.3 22.5 59 -12.1 10.3
15:15 1018 30.06 847 25.01 -4.8 23.4 56 -12.3 9.9
15:20 1018 30.06 847 25.01 -4.8 23.3 57 -12 10.3
15:25 1018 30.06 847 25.01 -4.8 23.4 56 -12.2 10.1
15:30 1018 30.06 847 25.01 -5 22.9 57 -12.2 10
15:35 1018 30.06 847 25.01 -5 23 58 -12 10.3
15:40 1018 30.06 847 25.01 -5 23 57 -12.2 10.1
15:45 1018 30.06 847 25.01 -5.3 22.4 58 -12.4 9.6
15:50 1018 30.06 847 25.01 -6.1 21 62 -12.3 9.8
15:55 1018 30.06 847 25.01 -6.8 19.7 63 -12.6 9.3
16:00 1018 30.06 847 25.01 -7.1 19.3 64 -12.8 8.9
16:05 1018 30.06 847 25.01 -7.2 19.1 64 -13 8.7
16:10 1018 30.06 847 25.01 -7 19.4 63 -12.9 8.8
16:15 1018 30.06 847 25.01 -6.8 19.8 61 -13 8.6
16:20 1018 30.06 847 25.01 -6.6 20.1 63 -12.5 9.4
16:25 1017 30.03 847 25.01 -6.5 20.3 61 -12.8 9
16:30 1017 30.03 847 25.01 -6.3 20.7 62 -12.4 9.7
16:35 1017 30.03 846 24.98 -6.4 20.4 63 -12.4 9.7
16:40 1017 30.03 846 24.98 -6.5 20.4 64 -12.3 9.9
16:45 1017 30.03 846 24.98 -6.6 20.2 65 -12.1 10.3
16:50 1017 30.03 846 24.98 -6.9 19.6 67 -12 10.3
16:55 1017 30.03 846 24.98 -7.4 18.8 70 -12 10.4
17:00 1017 30.03 846 24.98 -7.5 18.5 70 -12 10.3
17:05 1017 30.03 846 24.98 -7.6 18.3 71 -12 10.4
17:10 1017 30.03 846 24.98 -7.6 18.4 70 -12.1 10.2
17:15 1017 30.03 847 25.01 -7.6 18.3 71 -12.1 10.3
17:20 1017 30.03 847 25.01 -7.6 18.4 71 -12 10.4
17:25 1017 30.03 847 25.01 -7.7 18.1 70 -12.3 9.9
17:30 1018 30.06 847 25.01 -8 17.7 71 -12.3 9.8
17:35 1018 30.06 847 25.01 -8.1 17.4 71 -12.4 9.6
17:40 1018 30.06 847 25.01 -8.3 17.2 71 -12.6 9.4
17:45 1018 30.06 847 25.01 -8.4 17 72 -12.5 9.5
17:50 1018 30.06 847 25.01 -8.3 17 72 -12.6 9.4
17:55 1018 30.06 847 25.01 -8.5 16.7 72 -12.7 9.2
18:00 1018 30.06 847 25.01 -8.7 16.3 73 -12.7 9.1
18:05 1018 30.06 847 25.01 -8.8 16.2 73 -12.8 9
18:10 1018 30.06 847 25.01 -9.2 15.5 75 -12.7 9.1
18:15 1017 30.03 847 25.01 -9.5 14.9 77 -12.8 9
18:20 1017 30.03 847 25.01 -10.1 13.8 79 -13.1 8.5
18:25 1017 30.03 847 25.01 -10.3 13.4 80 -13.2 8.3
18:30 1018 30.06 847 25.01 -10.1 13.8 79 -13.1 8.4
18:35 1018 30.06 847 25.01 -9.8 14.3 79 -12.9 8.8
18:40 1018 30.06 847 25.01 -9.9 14.2 77 -13.2 8.2
18:45 1018 30.06 847 25.01 -10.3 13.5 79 -13.2 8.2
18:50 1018 30.06 847 25.01 -9.8 14.3 79 -12.9 8.8
18:55 1017 30.03 847 25.01 -9.7 14.6 78 -12.7 9.1
19:00 1017 30.03 847 25.01 -9.4 15.1 76 -12.8 8.9
19:05 1017 30.03 847 25.01 -9.3 15.3 76 -12.8 9
19:10 1017 30.03 847 25.01 -9.7 14.6 78 -12.9 8.8
19:15 1017 30.03 847 25.01 -9.9 14.2 78 -13 8.5
19:20 1017 30.03 846 24.98 -10.3 13.5 79 -13.3 8.1
19:25 1017 30.03 846 24.98 -10.7 12.7 82 -13.3 8.1
19:30 1017 30.03 846 24.98 -10.7 12.8 81 -13.3 8.1
19:35 1017 30.03 846 24.98 -10.6 13 81 -13.2 8.3
19:40 1017 30.03 846 24.98 -10.6 13 81 -13.2 8.3
19:45 1017 30.03 846 24.98 -10.4 13.3 80 -13.2 8.2
19:50 1017 30.03 846 24.98 -10.7 12.7 81 -13.3 8.1
19:55 1017 30.03 846 24.98 -10.9 12.4 80 -13.7 7.4
20:00 1017 30.03 846 24.98 -11.4 11.5 82 -13.9 6.9
20:05 1017 30.03 846 24.98 -11.1 12.1 79 -14 6.8
20:10 1017 30.03 846 24.98 -11.2 11.9 80 -14 6.8
20:15 1017 30.03 846 24.98 -11.1 12 80 -13.9 7
20:20 1017 30.03 846 24.98 -10.6 12.9 79 -13.6 7.4
20:25 1017 30.03 846 24.98 -10.4 13.2 79 -13.3 8
20:30 1017 30.03 846 24.98 -10.6 13 78 -13.6 7.5
20:35 1017 30.03 846 24.98 -10.8 12.6 80 -13.6 7.6
20:40 1017 30.03 846 24.98 -11 12.1 80 -13.9 7
20:45 1017 30.03 846 24.98 -11.3 11.7 82 -13.7 7.3
20:50 1017 30.03 846 24.98 -11.1 12 80 -13.9 6.9
20:55 1017 30.03 846 24.98 -11.3 11.8 82 -13.7 7.3
21:00 1017 30.03 846 24.98 -10.8 12.6 80 -13.5 7.6
21:05 1017 30.03 846 24.98 -10.6 12.9 79 -13.6 7.5
21:10 1017 30.03 846 24.98 -10.7 12.8 79 -13.7 7.4
21:15 1017 30.03 846 24.98 -10.7 12.7 79 -13.7 7.4
21:20 1017 30.03 846 24.98 -10.7 12.7 78 -13.9 7.1
21:25 1017 30.03 846 24.98 -10.7 12.7 78 -13.9 6.9
21:30 1017 30.03 847 25.01 -10.9 12.4 78 -14 6.7
21:35 1017 30.03 847 25.01 -11.3 11.7 79 -14.2 6.5
21:40 1017 30.03 847 25.01 -11.5 11.3 80 -14.3 6.3
21:45 1017 30.03 847 25.01 -11.4 11.4 81 -14.1 6.6
21:50 1017 30.03 847 25.01 -11 12.1 79 -14 6.8
21:55 1017 30.03 847 25.01 -10.7 12.7 76 -14.1 6.6
22:00 1017 30.03 847 25.01 -11 12.3 78 -14.1 6.5
22:05 1018 30.06 847 25.01 -11.1 12.1 79 -13.9 6.9
22:10 1018 30.06 847 25.01 -10.3 13.6 74 -14.1 6.6
22:15 1018 30.06 847 25.01 -10.2 13.7 75 -13.8 7.2
22:20 1018 30.06 847 25.01 -10.1 13.8 73 -14.1 6.7
22:25 1018 30.06 847 25.01 -10.9 12.4 77 -14.2 6.4
22:30 1018 30.06 847 25.01 -11.2 11.8 78 -14.3 6.3
22:35 1018 30.06 847 25.01 -11.2 11.8 79 -14.1 6.6
22:40 1018 30.06 847 25.01 -10.7 12.7 76 -14.1 6.7
22:45 1018 30.06 847 25.01 -10.5 13.1 76 -14 6.8
22:50 1018 30.06 847 25.01 -10.6 12.8 76 -14.1 6.7
22:55 1018 30.06 847 25.01 -10.5 13.1 77 -13.7 7.3
23:00 1018 30.06 847 25.01 -10.4 13.2 77 -13.7 7.3
23:05 1018 30.06 847 25.01 -10.4 13.3 77 -13.7 7.4
23:10 1018 30.06 847 25.01 -10.3 13.5 76 -13.8 7.2
23:15 1018 30.06 847 25.01 -10.4 13.2 76 -14 6.8
23:20 1017 30.03 847 25.01 -10.5 13 78 -13.7 7.3
23:25 1017 30.03 847 25.01 -10.3 13.4 77 -13.7 7.3
23:30 1017 30.03 847 25.01 -10.6 12.9 77 -13.9 6.9
23:35 1017 30.03 847 25.01 -10.8 12.6 78 -13.9 7
23:40 1017 30.03 847 25.01 -11.1 12 80 -13.9 7
23:45 1017 30.03 847 25.01 -11.3 11.6 81 -13.9 6.9
23:50 1017 30.03 846 24.98 -11.5 11.2 80 -14.4 6.1
23:55 1017 30.03 846 24.98 -11.3 11.6 80 -14.2 6.5
24:00 1017 30.03 846 24.98 -10.7 12.7 78 -13.8 7.1